PHZLV EHSE-EHTX
Flight info
| Callsign | PHZLV |
|---|---|
| Flight time | N/A |
| Altitude | 1500 |
| Route | VFR |
| Aircraft | SF50/L-BDGRSWY/LB2U2 |
Departure
| Time | 2026-04-19 18:03 |
|---|---|
| Airport | Breda International Airport (EHSE) |
Arrival
| Time | N/A |
|---|---|
| Airport | Texel International Airport (EHTX) |
| Time | Latitude | Longitude | Altitude | Speed | Heading |
|---|---|---|---|---|---|
| 2026-04-19 17:51 | 51.55523 | 4.54991 | 35 ft | 0 kts | 37° |
| 2026-04-19 17:55 | 51.55523 | 4.54992 | 35 ft | 1 kts | 24° |
| 2026-04-19 17:55 | 51.55523 | 4.54987 | 35 ft | 3 kts | 181° |
| 2026-04-19 17:55 | 51.55488 | 4.55002 | 35 ft | 6 kts | 163° |
| 2026-04-19 17:56 | 51.55459 | 4.54993 | 35 ft | 4 kts | 242° |
| 2026-04-19 17:56 | 51.55445 | 4.54946 | 35 ft | 6 kts | 246° |
| 2026-04-19 17:56 | 51.55425 | 4.54871 | 35 ft | 9 kts | 247° |
| 2026-04-19 17:56 | 51.55413 | 4.54827 | 35 ft | 0 kts | 246° |
| 2026-04-19 17:57 | 51.55413 | 4.54826 | 35 ft | 1 kts | 246° |
| 2026-04-19 17:57 | 51.55406 | 4.54800 | 35 ft | 2 kts | 247° |
| 2026-04-19 17:57 | 51.55400 | 4.54782 | 35 ft | 0 kts | 207° |
| 2026-04-19 18:01 | 51.55399 | 4.54781 | 35 ft | 1 kts | 203° |
| 2026-04-19 18:01 | 51.55360 | 4.54799 | 34 ft | 8 kts | 132° |
| 2026-04-19 18:01 | 51.55358 | 4.54815 | 34 ft | 0 kts | 60° |
| 2026-04-19 18:02 | 51.55359 | 4.54817 | 34 ft | 0 kts | 60° |
| 2026-04-19 18:02 | 51.55379 | 4.54882 | 34 ft | 31 kts | 64° |
| 2026-04-19 18:02 | 51.55563 | 4.55555 | 48 ft | 96 kts | 61° |
| 2026-04-19 18:03 | 51.55863 | 4.56571 | 491 ft | 103 kts | 59° |
| 2026-04-19 18:03 | 51.56194 | 4.57594 | 1052 ft | 104 kts | 56° |
| 2026-04-19 18:03 | 51.56538 | 4.58767 | 1352 ft | 129 kts | 63° |
| 2026-04-19 18:03 | 51.56920 | 4.60172 | 1524 ft | 141 kts | 62° |
| 2026-04-19 18:04 | 51.57316 | 4.61612 | 1503 ft | 140 kts | 63° |
| 2026-04-19 18:04 | 51.57694 | 4.62994 | 1491 ft | 128 kts | 62° |
| 2026-04-19 18:04 | 51.58041 | 4.64278 | 1487 ft | 119 kts | 62° |
| 2026-04-19 18:04 | 51.58343 | 4.65424 | 1482 ft | 105 kts | 62° |
| 2026-04-19 18:05 | 51.58608 | 4.66453 | 1481 ft | 98 kts | 63° |
| 2026-04-19 18:05 | 51.58867 | 4.67449 | 1483 ft | 94 kts | 61° |
| 2026-04-19 18:05 | 51.59225 | 4.68269 | 1485 ft | 89 kts | 43° |
| 2026-04-19 18:05 | 51.59632 | 4.69097 | 1498 ft | 98 kts | 46° |
| 2026-04-19 18:06 | 51.60074 | 4.69967 | 1498 ft | 101 kts | 46° |
| 2026-04-19 18:06 | 51.60511 | 4.70855 | 1503 ft | 101 kts | 46° |
| 2026-04-19 18:06 | 51.60957 | 4.71741 | 1494 ft | 105 kts | 46° |
| 2026-04-19 18:06 | 51.61455 | 4.72724 | 1495 ft | 122 kts | 46° |
| 2026-04-19 18:07 | 51.62644 | 4.75032 | 1492 ft | 139 kts | 46° |
| 2026-04-19 18:07 | 51.63263 | 4.76241 | 1493 ft | 140 kts | 47° |
| 2026-04-19 18:07 | 51.63889 | 4.77449 | 1492 ft | 140 kts | 47° |
| 2026-04-19 18:08 | 51.64465 | 4.78560 | 1484 ft | 140 kts | 46° |
| 2026-04-19 18:08 | 51.65090 | 4.79760 | 1482 ft | 139 kts | 47° |
| 2026-04-19 18:08 | 51.65716 | 4.80962 | 1479 ft | 141 kts | 46° |
| 2026-04-19 18:08 | 51.66348 | 4.82166 | 1485 ft | 141 kts | 46° |
| 2026-04-19 18:09 | 51.66968 | 4.83376 | 1480 ft | 139 kts | 47° |
| 2026-04-19 18:09 | 51.67596 | 4.84581 | 1479 ft | 140 kts | 46° |
| 2026-04-19 18:09 | 51.68206 | 4.85768 | 1478 ft | 139 kts | 46° |
| 2026-04-19 18:09 | 51.68831 | 4.86968 | 1478 ft | 140 kts | 46° |
| 2026-04-19 18:10 | 51.69456 | 4.88171 | 1478 ft | 141 kts | 46° |
| 2026-04-19 18:10 | 51.70080 | 4.89383 | 1479 ft | 140 kts | 47° |
| 2026-04-19 18:10 | 51.70701 | 4.90594 | 1482 ft | 141 kts | 46° |
| 2026-04-19 18:10 | 51.71357 | 4.91742 | 1478 ft | 137 kts | 36° |
| 2026-04-19 18:11 | 51.72132 | 4.92622 | 1481 ft | 137 kts | 32° |
| 2026-04-19 18:11 | 51.72910 | 4.93528 | 1474 ft | 137 kts | 32° |
| 2026-04-19 18:11 | 51.73686 | 4.94421 | 1475 ft | 137 kts | 32° |
| 2026-04-19 18:11 | 51.74458 | 4.95327 | 1478 ft | 137 kts | 33° |
| 2026-04-19 18:12 | 51.75228 | 4.96237 | 1475 ft | 137 kts | 32° |
| 2026-04-19 18:12 | 51.76009 | 4.97151 | 1478 ft | 142 kts | 32° |
| 2026-04-19 18:12 | 51.76850 | 4.98018 | 1484 ft | 150 kts | 22° |
| 2026-04-19 18:12 | 51.77850 | 4.98702 | 1487 ft | 155 kts | 20° |
| 2026-04-19 18:13 | 51.78839 | 4.99391 | 1482 ft | 156 kts | 20° |
| 2026-04-19 18:13 | 51.79821 | 5.00077 | 1486 ft | 156 kts | 20° |
| 2026-04-19 18:13 | 51.80812 | 5.00767 | 1490 ft | 155 kts | 20° |
| 2026-04-19 18:13 | 51.81806 | 5.01464 | 1483 ft | 156 kts | 20° |
| 2026-04-19 18:14 | 51.82799 | 5.02166 | 1492 ft | 154 kts | 20° |
| 2026-04-19 18:14 | 51.83811 | 5.02696 | 1481 ft | 154 kts | 5° |
| 2026-04-19 18:14 | 51.84876 | 5.02832 | 1486 ft | 153 kts | 2° |
| 2026-04-19 18:14 | 51.85943 | 5.02968 | 1486 ft | 154 kts | 2° |
| 2026-04-19 18:15 | 51.87012 | 5.03119 | 1484 ft | 153 kts | 3° |
| 2026-04-19 18:15 | 51.88080 | 5.03240 | 1484 ft | 154 kts | 356° |
| 2026-04-19 18:15 | 51.89108 | 5.02821 | 1488 ft | 152 kts | 340° |
| 2026-04-19 18:15 | 51.90081 | 5.02309 | 1485 ft | 142 kts | 342° |
| 2026-04-19 18:16 | 51.90972 | 5.01833 | 1479 ft | 127 kts | 341° |
| 2026-04-19 18:16 | 51.91720 | 5.01432 | 1473 ft | 103 kts | 342° |
| 2026-04-19 18:16 | 51.92395 | 5.01291 | 1481 ft | 97 kts | 5° |
| 2026-04-19 18:16 | 51.93054 | 5.01428 | 1481 ft | 94 kts | 2° |
| 2026-04-19 18:17 | 51.93704 | 5.01511 | 1478 ft | 92 kts | 1° |
| 2026-04-19 18:17 | 51.94338 | 5.01611 | 1479 ft | 91 kts | 3° |
| 2026-04-19 18:17 | 51.94978 | 5.01697 | 1483 ft | 92 kts | 3° |
| 2026-04-19 18:17 | 51.95398 | 5.01765 | 1483 ft | 92 kts | 4° |
| 2026-04-19 18:18 | 51.95996 | 5.02189 | 1484 ft | 95 kts | 24° |
| 2026-04-19 18:18 | 51.96583 | 5.02669 | 1485 ft | 95 kts | 30° |
| 2026-04-19 18:18 | 51.97059 | 5.03429 | 1481 ft | 97 kts | 41° |
| 2026-04-19 18:18 | 51.97762 | 5.04510 | 1498 ft | 113 kts | 40° |
| 2026-04-19 18:19 | 51.98155 | 5.05124 | 1499 ft | 117 kts | 39° |
| 2026-04-19 18:19 | 51.98621 | 5.06230 | 1500 ft | 123 kts | 63° |
| 2026-04-19 18:19 | 51.98963 | 5.07486 | 1495 ft | 124 kts | 59° |
| 2026-04-19 18:19 | 51.99330 | 5.08752 | 1494 ft | 124 kts | 60° |
| 2026-04-19 18:20 | 51.99691 | 5.10028 | 1493 ft | 124 kts | 60° |
| 2026-04-19 18:20 | 52.00061 | 5.11284 | 1482 ft | 121 kts | 52° |
| 2026-04-19 18:20 | 52.00700 | 5.12061 | 1480 ft | 114 kts | 19° |
| 2026-04-19 18:20 | 52.01447 | 5.12443 | 1477 ft | 111 kts | 11° |
| 2026-04-19 18:21 | 52.02193 | 5.12775 | 1489 ft | 111 kts | 12° |
| 2026-04-19 18:21 | 52.02953 | 5.13065 | 1481 ft | 112 kts | 4° |
| 2026-04-19 18:21 | 52.03728 | 5.13203 | 1483 ft | 112 kts | 4° |
| 2026-04-19 18:21 | 52.04500 | 5.13347 | 1480 ft | 117 kts | 3° |
| 2026-04-19 18:22 | 52.05327 | 5.13497 | 1486 ft | 120 kts | 3° |
| 2026-04-19 18:22 | 52.06151 | 5.13644 | 1489 ft | 118 kts | 3° |
| 2026-04-19 18:22 | 52.06957 | 5.13849 | 1480 ft | 116 kts | 10° |
| 2026-04-19 18:22 | 52.07736 | 5.13907 | 1480 ft | 110 kts | 355° |
| 2026-04-19 18:23 | 52.08509 | 5.13859 | 1487 ft | 112 kts | 356° |
| 2026-04-19 18:23 | 52.09291 | 5.13855 | 1492 ft | 108 kts | 0° |
| 2026-04-19 18:23 | 52.10003 | 5.13940 | 1482 ft | 97 kts | 0° |
| 2026-04-19 18:23 | 52.10651 | 5.13910 | 1481 ft | 91 kts | 352° |
| 2026-04-19 18:24 | 52.11273 | 5.13772 | 1480 ft | 90 kts | 352° |
| 2026-04-19 18:24 | 52.11897 | 5.13647 | 1493 ft | 90 kts | 351° |
| 2026-04-19 18:24 | 52.12521 | 5.13524 | 1489 ft | 91 kts | 352° |
| 2026-04-19 18:24 | 52.13170 | 5.13385 | 1502 ft | 99 kts | 350° |
| 2026-04-19 18:25 | 52.13875 | 5.13245 | 1508 ft | 105 kts | 351° |
| 2026-04-19 18:25 | 52.14610 | 5.13093 | 1505 ft | 108 kts | 351° |
| 2026-04-19 18:25 | 52.15361 | 5.12942 | 1506 ft | 109 kts | 352° |
| 2026-04-19 18:25 | 52.16114 | 5.12787 | 1504 ft | 109 kts | 351° |
| 2026-04-19 18:26 | 52.16869 | 5.12631 | 1505 ft | 109 kts | 351° |
| 2026-04-19 18:26 | 52.17622 | 5.12479 | 1502 ft | 109 kts | 351° |
| 2026-04-19 18:26 | 52.18376 | 5.12319 | 1505 ft | 109 kts | 352° |
| 2026-04-19 18:26 | 52.19136 | 5.12170 | 1501 ft | 109 kts | 351° |
| 2026-04-19 18:27 | 52.19890 | 5.12012 | 1504 ft | 109 kts | 351° |
| 2026-04-19 18:27 | 52.20642 | 5.11854 | 1503 ft | 109 kts | 352° |
| 2026-04-19 18:27 | 52.21393 | 5.11702 | 1504 ft | 110 kts | 352° |
| 2026-04-19 18:27 | 52.22136 | 5.11550 | 1502 ft | 104 kts | 352° |
| 2026-04-19 18:28 | 52.22832 | 5.11408 | 1490 ft | 98 kts | 352° |
| 2026-04-19 18:28 | 52.23491 | 5.11269 | 1490 ft | 95 kts | 351° |
| 2026-04-19 18:28 | 52.24146 | 5.11137 | 1487 ft | 95 kts | 352° |
| 2026-04-19 18:28 | 52.24791 | 5.11005 | 1490 ft | 92 kts | 353° |
| 2026-04-19 18:29 | 52.25422 | 5.10877 | 1488 ft | 90 kts | 352° |
| 2026-04-19 18:29 | 52.26044 | 5.10754 | 1492 ft | 90 kts | 352° |
| 2026-04-19 18:29 | 52.26667 | 5.10624 | 1438 ft | 91 kts | 351° |
| 2026-04-19 18:29 | 52.27265 | 5.10335 | 1333 ft | 90 kts | 348° |
| 2026-04-19 18:30 | 52.27874 | 5.10134 | 1229 ft | 89 kts | 343° |
| 2026-04-19 18:30 | 52.28460 | 5.09871 | 1198 ft | 87 kts | 345° |
| 2026-04-19 18:30 | 52.29041 | 5.09625 | 1197 ft | 87 kts | 345° |
| 2026-04-19 18:30 | 52.29648 | 5.09520 | 1198 ft | 89 kts | 355° |
| 2026-04-19 18:31 | 52.30266 | 5.09442 | 1201 ft | 89 kts | 354° |
| 2026-04-19 18:31 | 52.30881 | 5.09353 | 1201 ft | 88 kts | 353° |
| 2026-04-19 18:31 | 52.31491 | 5.09259 | 1206 ft | 88 kts | 353° |
| 2026-04-19 18:31 | 52.32102 | 5.09160 | 1202 ft | 88 kts | 353° |
| 2026-04-19 18:32 | 52.32713 | 5.09066 | 1203 ft | 88 kts | 353° |
| 2026-04-19 18:32 | 52.33337 | 5.08982 | 1206 ft | 93 kts | 353° |
| 2026-04-19 18:32 | 52.34000 | 5.08900 | 1215 ft | 97 kts | 353° |
| 2026-04-19 18:32 | 52.34686 | 5.08798 | 1205 ft | 99 kts | 348° |
| 2026-04-19 18:33 | 52.35324 | 5.08440 | 1204 ft | 98 kts | 330° |
| 2026-04-19 18:33 | 52.35853 | 5.07747 | 1206 ft | 99 kts | 315° |
| 2026-04-19 18:33 | 52.36233 | 5.06783 | 1204 ft | 105 kts | 301° |
| 2026-04-19 18:33 | 52.36608 | 5.05719 | 1202 ft | 111 kts | 304° |
| 2026-04-19 18:34 | 52.37012 | 5.04609 | 1080 ft | 115 kts | 303° |
| 2026-04-19 18:34 | 52.37421 | 5.03489 | 1010 ft | 114 kts | 304° |
| 2026-04-19 18:34 | 52.37918 | 5.02526 | 1002 ft | 109 kts | 323° |
| 2026-04-19 18:34 | 52.38523 | 5.01784 | 998 ft | 108 kts | 323° |
| 2026-04-19 18:35 | 52.39117 | 5.01032 | 997 ft | 108 kts | 324° |
| 2026-04-19 18:35 | 52.39711 | 5.00285 | 994 ft | 108 kts | 323° |
| 2026-04-19 18:35 | 52.40198 | 4.99357 | 990 ft | 110 kts | 296° |
| 2026-04-19 18:35 | 52.40421 | 4.98150 | 997 ft | 111 kts | 294° |
| 2026-04-19 18:36 | 52.40736 | 4.97001 | 997 ft | 110 kts | 298° |
| 2026-04-19 18:36 | 52.41210 | 4.96082 | 995 ft | 108 kts | 325° |
| 2026-04-19 18:36 | 52.41791 | 4.95312 | 997 ft | 108 kts | 322° |
| 2026-04-19 18:36 | 52.42367 | 4.94524 | 998 ft | 108 kts | 322° |
| 2026-04-19 18:37 | 52.42950 | 4.93736 | 998 ft | 108 kts | 322° |
| 2026-04-19 18:37 | 52.43535 | 4.92957 | 1000 ft | 109 kts | 322° |
| 2026-04-19 18:37 | 52.44121 | 4.92179 | 997 ft | 108 kts | 322° |
| 2026-04-19 18:37 | 52.44632 | 4.91278 | 995 ft | 110 kts | 302° |
| 2026-04-19 18:38 | 52.44989 | 4.90156 | 993 ft | 112 kts | 303° |
| 2026-04-19 18:38 | 52.45369 | 4.89020 | 998 ft | 114 kts | 303° |
| 2026-04-19 18:38 | 52.45745 | 4.87865 | 1001 ft | 115 kts | 304° |
| 2026-04-19 18:38 | 52.46207 | 4.86792 | 997 ft | 118 kts | 312° |
| 2026-04-19 18:39 | 52.46706 | 4.85752 | 993 ft | 117 kts | 311° |
| 2026-04-19 18:39 | 52.47223 | 4.84663 | 1001 ft | 124 kts | 311° |
| 2026-04-19 18:39 | 52.47766 | 4.83534 | 1011 ft | 128 kts | 311° |
| 2026-04-19 18:39 | 52.48329 | 4.82386 | 1009 ft | 129 kts | 311° |
| 2026-04-19 18:40 | 52.48894 | 4.81239 | 1008 ft | 129 kts | 312° |
| 2026-04-19 18:40 | 52.49531 | 4.80233 | 1006 ft | 128 kts | 319° |
| 2026-04-19 18:40 | 52.50168 | 4.79202 | 1007 ft | 130 kts | 317° |
| 2026-04-19 18:40 | 52.50804 | 4.78151 | 1004 ft | 130 kts | 317° |
| 2026-04-19 18:41 | 52.51435 | 4.77100 | 1007 ft | 129 kts | 317° |
| 2026-04-19 18:41 | 52.52069 | 4.76046 | 1004 ft | 129 kts | 317° |
| 2026-04-19 18:41 | 52.52661 | 4.75060 | 1002 ft | 114 kts | 317° |
| 2026-04-19 18:41 | 52.53211 | 4.74131 | 997 ft | 113 kts | 317° |
| 2026-04-19 18:42 | 52.53758 | 4.73209 | 1000 ft | 112 kts | 317° |
| 2026-04-19 18:42 | 52.54302 | 4.72291 | 999 ft | 112 kts | 317° |
| 2026-04-19 18:42 | 52.54847 | 4.71372 | 998 ft | 112 kts | 317° |
| 2026-04-19 18:42 | 52.55388 | 4.70456 | 995 ft | 111 kts | 317° |
| 2026-04-19 18:43 | 52.55926 | 4.69546 | 993 ft | 110 kts | 317° |
| 2026-04-19 18:43 | 52.56433 | 4.68604 | 992 ft | 110 kts | 312° |
| 2026-04-19 18:43 | 52.56899 | 4.67630 | 1003 ft | 109 kts | 313° |
| 2026-04-19 18:43 | 52.57377 | 4.66654 | 1000 ft | 110 kts | 313° |
| 2026-04-19 18:44 | 52.57854 | 4.65676 | 1002 ft | 109 kts | 313° |
| 2026-04-19 18:44 | 52.58332 | 4.64697 | 1003 ft | 110 kts | 313° |
| 2026-04-19 18:44 | 52.58937 | 4.64041 | 994 ft | 107 kts | 355° |
| 2026-04-19 18:44 | 52.59669 | 4.64247 | 1006 ft | 108 kts | 13° |
| 2026-04-19 18:45 | 52.60398 | 4.64560 | 1003 ft | 108 kts | 11° |
| 2026-04-19 18:45 | 52.61124 | 4.64863 | 1007 ft | 108 kts | 11° |
| 2026-04-19 18:45 | 52.61852 | 4.65147 | 1012 ft | 107 kts | 11° |
| 2026-04-19 18:45 | 52.62585 | 4.65444 | 1002 ft | 110 kts | 11° |
| 2026-04-19 18:46 | 52.63324 | 4.65754 | 1005 ft | 110 kts | 11° |
| 2026-04-19 18:46 | 52.64050 | 4.66060 | 999 ft | 107 kts | 12° |
| 2026-04-19 18:46 | 52.64770 | 4.66355 | 998 ft | 106 kts | 11° |
| 2026-04-19 18:46 | 52.65496 | 4.66650 | 999 ft | 108 kts | 11° |
| 2026-04-19 18:47 | 52.66217 | 4.66942 | 1004 ft | 108 kts | 12° |
| 2026-04-19 18:47 | 52.66916 | 4.67401 | 998 ft | 108 kts | 24° |
| 2026-04-19 18:47 | 52.67586 | 4.67964 | 1002 ft | 108 kts | 21° |
| 2026-04-19 18:47 | 52.68262 | 4.68509 | 1001 ft | 107 kts | 22° |
| 2026-04-19 18:48 | 52.68938 | 4.69068 | 1005 ft | 108 kts | 23° |
| 2026-04-19 18:48 | 52.69617 | 4.69606 | 1009 ft | 108 kts | 22° |
| 2026-04-19 18:48 | 52.70268 | 4.70207 | 1001 ft | 110 kts | 36° |
| 2026-04-19 18:48 | 52.70834 | 4.71049 | 1000 ft | 108 kts | 23° |
| 2026-04-19 18:49 | 52.71552 | 4.71350 | 1000 ft | 106 kts | 10° |
| 2026-04-19 18:49 | 52.72275 | 4.71634 | 1005 ft | 106 kts | 10° |
| 2026-04-19 18:49 | 52.73010 | 4.71887 | 1002 ft | 112 kts | 9° |
| 2026-04-19 18:49 | 52.73772 | 4.72139 | 1002 ft | 110 kts | 9° |
| 2026-04-19 18:50 | 52.74512 | 4.72379 | 1001 ft | 108 kts | 9° |
| 2026-04-19 18:50 | 52.75245 | 4.72615 | 1001 ft | 107 kts | 9° |
| 2026-04-19 18:50 | 52.75972 | 4.72844 | 1000 ft | 106 kts | 9° |
| 2026-04-19 18:50 | 52.76702 | 4.73076 | 1000 ft | 106 kts | 9° |
| 2026-04-19 18:51 | 52.77418 | 4.73305 | 998 ft | 103 kts | 8° |
| 2026-04-19 18:51 | 52.78127 | 4.73528 | 993 ft | 104 kts | 9° |
| 2026-04-19 18:51 | 52.78851 | 4.73755 | 1001 ft | 107 kts | 9° |
| 2026-04-19 18:52 | 52.80309 | 4.74220 | 999 ft | 106 kts | 8° |
| 2026-04-19 18:52 | 52.81036 | 4.74452 | 999 ft | 106 kts | 9° |
| 2026-04-19 18:52 | 52.81761 | 4.74682 | 1002 ft | 107 kts | 8° |
| 2026-04-19 18:52 | 52.82498 | 4.74916 | 998 ft | 107 kts | 8° |
| 2026-04-19 18:53 | 52.83231 | 4.75150 | 993 ft | 106 kts | 8° |
| 2026-04-19 18:53 | 52.83920 | 4.74870 | 993 ft | 110 kts | 316° |
| 2026-04-19 18:53 | 52.83979 | 4.73623 | 995 ft | 123 kts | 246° |
| 2026-04-19 18:53 | 52.83246 | 4.72926 | 988 ft | 133 kts | 182° |
| 2026-04-19 18:54 | 52.82465 | 4.73632 | 992 ft | 129 kts | 117° |
| 2026-04-19 18:54 | 52.82439 | 4.74971 | 991 ft | 115 kts | 53° |
| 2026-04-19 18:54 | 52.83046 | 4.75695 | 1000 ft | 106 kts | 14° |
| 2026-04-19 18:54 | 52.83768 | 4.75769 | 1004 ft | 105 kts | 344° |
| 2026-04-19 18:55 | 52.84472 | 4.75626 | 1004 ft | 105 kts | 8° |
| 2026-04-19 18:55 | 52.85198 | 4.75845 | 1007 ft | 105 kts | 5° |
| 2026-04-19 18:55 | 52.85908 | 4.76039 | 1002 ft | 105 kts | 8° |
| 2026-04-19 18:55 | 52.86631 | 4.76251 | 1006 ft | 106 kts | 8° |
| 2026-04-19 18:56 | 52.87356 | 4.76477 | 1007 ft | 105 kts | 8° |
| 2026-04-19 18:56 | 52.88084 | 4.76635 | 1003 ft | 105 kts | 353° |
| 2026-04-19 18:56 | 52.88619 | 4.75960 | 993 ft | 96 kts | 311° |
| 2026-04-19 18:56 | 52.89022 | 4.75163 | 992 ft | 86 kts | 317° |
| 2026-04-19 18:57 | 52.89410 | 4.74416 | 995 ft | 86 kts | 316° |
| 2026-04-19 18:57 | 52.89524 | 4.73427 | 994 ft | 103 kts | 252° |
| 2026-04-19 18:57 | 52.88897 | 4.72861 | 991 ft | 112 kts | 172° |
| 2026-04-19 18:57 | 52.88374 | 4.73645 | 992 ft | 101 kts | 90° |
| 2026-04-19 18:58 | 52.88687 | 4.74458 | 1003 ft | 85 kts | 11° |
| 2026-04-19 18:58 | 52.89248 | 4.74772 | 1009 ft | 88 kts | 28° |
| 2026-04-19 18:58 | 52.89795 | 4.75314 | 797 ft | 95 kts | 21° |
| 2026-04-19 18:58 | 52.90402 | 4.75843 | 517 ft | 103 kts | 30° |
| 2026-04-19 18:59 | 52.90973 | 4.76571 | 286 ft | 100 kts | 22° |
| 2026-04-19 18:59 | 52.91546 | 4.77160 | 155 ft | 96 kts | 32° |
| 2026-04-19 18:59 | 52.92082 | 4.77767 | 14 ft | 83 kts | 31° |
| 2026-04-19 18:59 | 52.92518 | 4.78245 | 3 ft | 87 kts | 31° |
| 2026-04-19 19:00 | 52.93065 | 4.78829 | 154 ft | 97 kts | 26° |
| 2026-04-19 19:00 | 52.93637 | 4.79352 | 444 ft | 91 kts | 22° |
| 2026-04-19 19:00 | 52.94218 | 4.79760 | 659 ft | 93 kts | 26° |
| 2026-04-19 19:00 | 52.94746 | 4.80286 | 913 ft | 83 kts | 14° |
| 2026-04-19 19:01 | 52.95309 | 4.80106 | 1007 ft | 91 kts | 343° |
| 2026-04-19 19:01 | 52.95979 | 4.79748 | 1026 ft | 116 kts | 342° |
| 2026-04-19 19:01 | 52.96830 | 4.79288 | 1021 ft | 138 kts | 343° |
| 2026-04-19 19:01 | 52.97790 | 4.78760 | 1015 ft | 150 kts | 342° |
| 2026-04-19 19:02 | 52.98727 | 4.77952 | 1006 ft | 157 kts | 320° |
| 2026-04-19 19:02 | 52.99409 | 4.76508 | 1013 ft | 157 kts | 310° |
| 2026-04-19 19:02 | 53.00027 | 4.75134 | 1003 ft | 140 kts | 311° |
| 2026-04-19 19:02 | 53.00588 | 4.73891 | 994 ft | 130 kts | 311° |
| 2026-04-19 19:03 | 53.01142 | 4.72734 | 990 ft | 126 kts | 319° |
| 2026-04-19 19:03 | 53.01821 | 4.71964 | 999 ft | 105 kts | 338° |
| 2026-04-19 19:03 | 53.02476 | 4.71917 | 990 ft | 89 kts | 10° |
| 2026-04-19 19:03 | 53.03071 | 4.72071 | 993 ft | 85 kts | 5° |
| 2026-04-19 19:04 | 53.03641 | 4.72266 | 1014 ft | 84 kts | 20° |
| 2026-04-19 19:04 | 53.04150 | 4.72771 | 1021 ft | 86 kts | 24° |
| 2026-04-19 19:04 | 53.04645 | 4.73330 | 1015 ft | 89 kts | 39° |
| 2026-04-19 19:04 | 53.04967 | 4.74228 | 1021 ft | 91 kts | 49° |
| 2026-04-19 19:05 | 53.05203 | 4.74806 | 1019 ft | 91 kts | 47° |
| 2026-04-19 19:05 | 53.05680 | 4.75944 | 1027 ft | 90 kts | 47° |
| 2026-04-19 19:05 | 53.06039 | 4.76806 | 1031 ft | 89 kts | 46° |
| 2026-04-19 19:05 | 53.06380 | 4.77663 | 1025 ft | 89 kts | 49° |
| 2026-04-19 19:06 | 53.06619 | 4.78224 | 1027 ft | 90 kts | 46° |
| 2026-04-19 19:06 | 53.06972 | 4.79083 | 1026 ft | 88 kts | 46° |
| 2026-04-19 19:06 | 53.07469 | 4.79386 | 1016 ft | 83 kts | 339° |
| 2026-04-19 19:06 | 53.07794 | 4.78563 | 1025 ft | 94 kts | 290° |
| 2026-04-19 19:07 | 53.07727 | 4.77431 | 1025 ft | 108 kts | 252° |
| 2026-04-19 19:07 | 53.07350 | 4.76348 | 1028 ft | 107 kts | 247° |
| 2026-04-19 19:07 | 53.06732 | 4.75628 | 1015 ft | 119 kts | 186° |
| 2026-04-19 19:07 | 53.06074 | 4.76212 | 1014 ft | 106 kts | 105° |
| 2026-04-19 19:08 | 53.06216 | 4.77182 | 1026 ft | 84 kts | 32° |
| 2026-04-19 19:08 | 53.06665 | 4.77847 | 1036 ft | 89 kts | 38° |
| 2026-04-19 19:08 | 53.07117 | 4.78515 | 1025 ft | 86 kts | 35° |
| 2026-04-19 19:08 | 53.07576 | 4.79159 | 1020 ft | 86 kts | 33° |
| 2026-04-19 19:09 | 53.08022 | 4.79817 | 1015 ft | 85 kts | 36° |
| 2026-04-19 19:09 | 53.08488 | 4.80444 | 1009 ft | 86 kts | 26° |
| 2026-04-19 19:09 | 53.09060 | 4.80636 | 918 ft | 84 kts | 4° |
| 2026-04-19 19:09 | 53.09613 | 4.80971 | 804 ft | 88 kts | 37° |
| 2026-04-19 19:10 | 53.10107 | 4.81224 | 729 ft | 81 kts | 320° |
| 2026-04-19 19:10 | 53.10239 | 4.80313 | 741 ft | 84 kts | 263° |
| 2026-04-19 19:10 | 53.09779 | 4.80212 | 510 ft | 91 kts | 78° |
| 2026-04-19 19:10 | 53.10049 | 4.80864 | 569 ft | 71 kts | 38° |
| 2026-04-19 19:11 | 53.10422 | 4.80805 | 559 ft | 65 kts | 320° |
| 2026-04-19 19:11 | 53.10654 | 4.80130 | 602 ft | 66 kts | 303° |
| 2026-04-19 19:11 | 53.10827 | 4.79393 | 671 ft | 73 kts | 299° |
| 2026-04-19 19:11 | 53.11027 | 4.78633 | 919 ft | 75 kts | 311° |
| 2026-04-19 19:12 | 53.11375 | 4.77701 | 1032 ft | 116 kts | 309° |
| 2026-04-19 19:12 | 53.11922 | 4.76420 | 1046 ft | 153 kts | 311° |
| 2026-04-19 19:12 | 53.12586 | 4.74897 | 1036 ft | 174 kts | 308° |
| 2026-04-19 19:12 | 53.12875 | 4.73035 | 1008 ft | 164 kts | 269° |
| 2026-04-19 19:13 | 53.12322 | 4.71461 | 1001 ft | 161 kts | 221° |
| 2026-04-19 19:13 | 53.11274 | 4.71060 | 1010 ft | 156 kts | 168° |
| 2026-04-19 19:13 | 53.10258 | 4.71695 | 1020 ft | 157 kts | 155° |
| 2026-04-19 19:13 | 53.09247 | 4.72339 | 1022 ft | 154 kts | 156° |
| 2026-04-19 19:14 | 53.08243 | 4.72974 | 1019 ft | 156 kts | 156° |
| 2026-04-19 19:14 | 53.07353 | 4.73928 | 1015 ft | 151 kts | 120° |
| 2026-04-19 19:14 | 53.07165 | 4.75428 | 1020 ft | 116 kts | 66° |
| 2026-04-19 19:14 | 53.07459 | 4.76546 | 1008 ft | 101 kts | 64° |
| 2026-04-19 19:15 | 53.07610 | 4.77650 | 1010 ft | 95 kts | 67° |
| 2026-04-19 19:15 | 53.07836 | 4.78645 | 995 ft | 90 kts | 45° |
| 2026-04-19 19:15 | 53.08294 | 4.79282 | 982 ft | 84 kts | 30° |